Time;durP1;ratioP1;P1;durP2;ratioP2;P2;SDS_P1;SDS_P2;PMS_P1;PMS_P2;Temp;Humidity;BMP_temperature;BMP_pressure;BME280_temperature;BME280_humidity;BME280_pressure;Samples;Min_cycle;Max_cycle;Signal;HPM_P1;HPM_P2
2023/04/10 00:02:12;;;;;;;1999.90;999.90;;;8.30;99.90;;;;;;4978211;28;20034;-74
2023/04/10 00:04:38;;;;;;;1999.90;220.30;;;8.30;99.90;;;;;;5009230;28;20403;-74
2023/04/10 00:07:03;;;;;;;1999.90;433.98;;;8.30;99.90;;;;;;4993077;28;20372;-74
2023/04/10 00:09:30;;;;;;;1999.90;274.70;;;8.20;99.90;;;;;;4992947;28;20049;-74
2023/04/10 00:11:56;;;;;;;1999.90;489.60;;;8.20;99.90;;;;;;4994357;28;20050;-76
2023/04/10 00:14:23;;;;;;;1999.90;822.67;;;8.20;99.90;;;;;;4998968;28;20129;-78
2023/04/10 00:16:49;;;;;;;1999.90;484.48;;;8.10;99.90;;;;;;5000150;28;20049;-74
2023/04/10 00:19:15;;;;;;;1999.90;248.45;;;8.40;99.90;;;;;;4997321;28;20081;-74
2023/04/10 00:21:41;;;;;;;1999.90;827.60;;;8.10;99.90;;;;;;5001152;28;20112;-74
2023/04/10 00:24:07;;;;;;;1999.90;827.53;;;8.10;99.90;;;;;;5012540;28;20046;-74
2023/04/10 00:26:34;;;;;;;1999.90;357.15;;;8.10;99.90;;;;;;4998404;28;20064;-74
2023/04/10 00:29:01;;;;;;;1999.90;999.90;;;8.00;99.90;;;;;;4991454;28;20478;-75
2023/04/10 00:31:27;;;;;;;1999.90;638.47;;;8.00;99.90;;;;;;5001806;28;20305;-74
2023/04/10 00:33:52;;;;;;;1999.90;293.73;;;8.00;99.90;;;;;;4993182;28;20039;-74
2023/04/10 00:36:18;;;;;;;1999.90;650.67;;;7.90;99.90;;;;;;4974678;28;20066;-74
2023/04/10 00:38:44;;;;;;;1999.90;999.90;;;7.90;99.90;;;;;;4983446;28;20049;-74
2023/04/10 00:41:10;;;;;;;1999.90;644.08;;;7.80;99.90;;;;;;4992854;28;20042;-74
2023/04/10 00:43:35;;;;;;;1999.90;250.50;;;7.80;99.90;;;;;;5000865;28;20124;-74
2023/04/10 00:46:03;;;;;;;1999.90;999.90;;;8.20;99.90;;;;;;4958675;28;20487;-75
2023/04/10 00:48:29;;;;;;;1999.90;999.90;;;7.80;99.90;;;;;;4958848;28;20046;-74
2023/04/10 00:50:54;;;;;;;1999.90;452.88;;;7.70;99.90;;;;;;4994002;28;20046;-74
2023/04/10 00:53:20;;;;;;;1999.90;999.90;;;7.70;99.90;;;;;;4991235;28;20051;-74
2023/04/10 00:55:48;;;;;;;1999.90;252.25;;;7.70;99.90;;;;;;5005035;28;20059;-74
2023/04/10 00:58:13;;;;;;;1999.90;820.88;;;7.60;99.90;;;;;;4980266;28;20056;-74
2023/04/10 01:00:40;;;;;;;1999.90;999.90;;;7.60;99.90;;;;;;4955474;28;20062;-74
2023/04/10 01:03:07;;;;;;;1999.90;337.60;;;7.60;99.90;;;;;;4979787;28;20097;-74
2023/04/10 01:05:44;;;;;;;1999.90;835.03;;;7.70;99.90;;;;;;4965195;28;20054;-73
2023/04/10 01:08:15;;;;;;;1999.90;999.90;;;7.50;99.90;;;;;;4974816;28;20071;-74
2023/04/10 01:10:51;;;;;;;1999.90;999.90;;;7.50;99.90;;;;;;4989749;28;20141;-74
2023/04/10 01:13:47;;;;;;;1999.90;304.67;;;7.50;99.90;;;;;;4994539;28;20058;-74
2023/04/10 01:16:29;;;;;;;1999.90;999.90;;;7.50;99.90;;;;;;4992578;28;20061;-75
2023/04/10 01:19:29;;;;;;;1999.90;999.90;;;7.40;99.90;;;;;;4985900;28;20050;-74
2023/04/10 01:21:57;;;;;;;1999.90;347.40;;;7.40;99.90;;;;;;5005962;28;20042;-74
2023/04/10 01:24:44;;;;;;;1999.90;999.90;;;8.60;99.90;;;;;;4991935;28;20078;-74
2023/04/10 01:27:18;;;;;;;1999.90;380.85;;;7.30;99.90;;;;;;4992075;28;20053;-74
2023/04/10 01:29:49;;;;;;;1999.90;431.25;;;7.30;99.90;;;;;;4974394;28;20450;-74
2023/04/10 01:32:18;;;;;;;1999.90;999.90;;;7.30;99.90;;;;;;4983223;28;20096;-74
2023/04/10 01:34:48;;;;;;;1999.90;999.90;;;7.30;99.90;;;;;;4997403;28;20054;-74
2023/04/10 01:37:24;;;;;;;1999.90;261.48;;;7.30;99.90;;;;;;4991783;28;20047;-74
2023/04/10 01:39:57;;;;;;;1999.90;676.25;;;7.30;99.90;;;;;;4974579;28;20475;-77
2023/04/10 01:42:25;;;;;;;1999.90;999.90;;;7.20;99.90;;;;;;4991015;28;20049;-74
2023/04/10 01:44:52;;;;;;;1995.88;176.32;;;7.30;99.90;;;;;;5002510;28;20492;-74
2023/04/10 01:47:18;;;;;;;1997.30;192.73;;;7.20;99.90;;;;;;4996019;28;20111;-74
2023/04/10 01:49:46;;;;;;;1999.90;311.23;;;7.40;99.90;;;;;;4995946;28;20082;-74
2023/04/10 01:52:14;;;;;;;1999.90;999.90;;;7.10;99.90;;;;;;4998664;28;20120;-74
2023/04/10 01:54:42;;;;;;;1999.90;315.90;;;7.20;99.90;;;;;;4990413;28;20125;-74
2023/04/10 01:57:09;;;;;;;1999.90;375.35;;;7.20;99.90;;;;;;4995053;28;20058;-74
2023/04/10 01:59:36;;;;;;;1999.90;999.90;;;7.20;99.90;;;;;;4962170;28;20516;-74
2023/04/10 02:02:03;;;;;;;1999.90;399.55;;;7.50;99.90;;;;;;4996169;28;20792;-74
2023/04/10 02:04:29;;;;;;;1999.90;802.75;;;7.60;99.90;;;;;;5014035;28;20053;-74
2023/04/10 02:07:07;;;;;;;1999.90;816.10;;;7.30;99.90;;;;;;4996530;28;20049;-74
2023/04/10 02:09:57;;;;;;;1999.90;215.77;;;7.30;99.90;;;;;;4993853;28;20050;-74
2023/04/10 02:12:29;;;;;;;1999.90;423.48;;;7.30;99.90;;;;;;4994910;28;20056;-74
2023/04/10 02:15:00;;;;;;;1999.90;450.73;;;7.30;99.90;;;;;;4980369;28;20042;-74
2023/04/10 02:17:28;;;;;;;1999.90;999.90;;;7.30;99.90;;;;;;5002749;28;20122;-74
2023/04/10 02:19:56;;;;;;;1999.90;999.90;;;7.30;99.90;;;;;;4990516;28;20046;-74
2023/04/10 02:22:22;;;;;;;1999.90;271.60;;;7.20;99.90;;;;;;5011196;28;20507;-74
2023/04/10 02:24:49;;;;;;;1999.90;515.45;;;7.20;99.90;;;;;;5006201;28;20219;-74
2023/04/10 02:27:15;;;;;;;1999.90;614.00;;;9.90;99.90;;;;;;5006640;28;20052;-74
2023/04/10 02:29:41;;;;;;;1999.90;999.90;;;7.20;99.90;;;;;;4991352;28;20062;-74
2023/04/10 02:32:06;;;;;;;1999.90;629.03;;;9.20;99.90;;;;;;4994690;28;20055;-74
2023/04/10 02:34:32;;;;;;;1999.90;552.30;;;7.30;99.90;;;;;;5005659;28;20053;-74
2023/04/10 02:36:58;;;;;;;1999.90;999.90;;;7.30;99.90;;;;;;5010666;28;20046;-75
2023/04/10 02:39:24;;;;;;;1999.90;999.90;;;7.30;99.90;;;;;;4994062;28;20085;-75
2023/04/10 02:41:49;;;;;;;1999.90;999.90;;;7.40;99.90;;;;;;4998282;28;20046;-74
2023/04/10 02:44:15;;;;;;;1999.90;999.90;;;7.30;99.90;;;;;;4996930;28;20512;-74
2023/04/10 02:46:41;;;;;;;1999.90;370.95;;;7.30;99.90;;;;;;5009562;28;20525;-74
2023/04/10 02:49:07;;;;;;;1999.90;252.02;;;7.50;99.90;;;;;;4993204;28;20411;-73
2023/04/10 02:51:36;;;;;;;1999.90;642.42;;;8.20;99.90;;;;;;4993755;28;20108;-73
2023/04/10 02:54:01;;;;;;;1999.90;219.10;;;7.60;99.90;;;;;;5002145;28;20042;-74
2023/04/10 02:56:27;;;;;;;1999.90;495.40;;;7.30;99.90;;;;;;5003538;28;20038;-74
2023/04/10 02:58:53;;;;;;;1999.90;999.90;;;7.40;99.90;;;;;;5014373;28;20108;-73
2023/04/10 03:01:19;;;;;;;1999.90;999.90;;;7.40;99.90;;;;;;4990746;28;20045;-74
2023/04/10 03:03:45;;;;;;;1999.90;248.27;;;7.40;99.90;;;;;;5011827;28;20100;-77
2023/04/10 03:06:11;;;;;;;1999.90;299.95;;;7.40;99.90;;;;;;4967742;28;20046;-76
2023/04/10 03:08:36;;;;;;;1999.90;999.90;;;7.50;99.90;;;;;;4979527;28;20136;-73
2023/04/10 03:11:02;;;;;;;1999.90;619.78;;;8.10;99.90;;;;;;4991928;28;20054;-73
2023/04/10 03:13:28;;;;;;;1999.90;999.90;;;7.50;99.90;;;;;;5004083;28;20438;-74
2023/04/10 03:15:53;;;;;;;1999.90;596.72;;;7.50;99.90;;;;;;4967152;28;20444;-73
2023/04/10 03:18:19;;;;;;;1999.90;999.90;;;8.10;99.90;;;;;;4983175;28;20046;-74
2023/04/10 03:20:45;;;;;;;1999.90;814.50;;;7.50;99.90;;;;;;4984895;28;20047;-74
2023/04/10 03:23:10;;;;;;;1999.90;490.35;;;7.50;99.90;;;;;;4972616;28;20494;-73
2023/04/10 03:25:36;;;;;;;1999.90;504.45;;;7.50;99.90;;;;;;4991104;28;20058;-73
2023/04/10 03:28:02;;;;;;;1999.90;305.30;;;8.00;99.90;;;;;;5012128;28;20489;-73
2023/04/10 03:30:28;;;;;;;1999.90;612.63;;;7.60;99.90;;;;;;5012328;28;20069;-74
2023/04/10 03:32:54;;;;;;;1999.90;512.03;;;7.60;99.90;;;;;;5008282;28;20050;-73
2023/04/10 03:35:20;;;;;;;1999.90;999.90;;;7.80;99.90;;;;;;4992337;28;20058;-81
2023/04/10 03:37:46;;;;;;;1999.90;613.25;;;;;;;;;;4993967;28;20618;-73
2023/04/10 03:40:11;;;;;;;1999.90;999.90;;;7.70;99.90;;;;;;4993864;28;20050;-73
2023/04/10 03:42:37;;;;;;;1999.90;680.35;;;7.70;99.90;;;;;;4993592;28;20048;-73
2023/04/10 03:45:05;;;;;;;1999.90;405.45;;;7.90;99.90;;;;;;4963442;28;20042;-74
2023/04/10 03:47:31;;;;;;;1999.90;635.53;;;7.80;99.90;;;;;;5011097;28;20068;-74
2023/04/10 03:50:00;;;;;;;1999.90;276.63;;;7.70;99.90;;;;;;4989439;28;20042;-73
2023/04/10 03:52:27;;;;;;;1999.90;999.90;;;7.70;99.90;;;;;;4993418;28;20077;-74
2023/04/10 03:54:53;;;;;;;1999.90;999.90;;;7.70;99.90;;;;;;4975466;28;20047;-73
2023/04/10 03:57:20;;;;;;;1999.90;999.90;;;7.70;99.90;;;;;;5000232;28;20450;-80
2023/04/10 03:59:49;;;;;;;1999.90;999.90;;;7.60;99.90;;;;;;4994790;28;20070;-73
2023/04/10 04:02:14;;;;;;;1999.90;999.90;;;7.60;99.90;;;;;;5011283;28;20034;-73
2023/04/10 04:04:40;;;;;;;1999.90;317.48;;;7.60;99.90;;;;;;4976804;28;20128;-73
2023/04/10 04:07:06;;;;;;;1999.90;999.90;;;7.60;99.90;;;;;;4997552;28;20088;-74
2023/04/10 04:09:31;;;;;;;1999.90;999.90;;;7.70;99.90;;;;;;4992393;28;20155;-73
2023/04/10 04:11:57;;;;;;;1999.90;849.95;;;7.60;99.90;;;;;;4975425;28;20050;-73
2023/04/10 04:14:23;;;;;;;1999.90;999.90;;;8.30;99.90;;;;;;4983521;28;20075;-81
2023/04/10 04:16:49;;;;;;;1999.90;999.90;;;6.20;99.90;;;;;;4989189;28;20050;-73
2023/04/10 04:19:15;;;;;;;1999.90;999.90;;;9.10;99.90;;;;;;5002134;28;20503;-74
2023/04/10 04:21:41;;;;;;;1999.90;999.90;;;7.90;99.90;;;;;;4989782;28;20080;-73
2023/04/10 04:24:06;;;;;;;1999.90;999.90;;;7.90;99.90;;;;;;4991618;28;20438;-73
2023/04/10 04:26:32;;;;;;;1999.90;472.25;;;8.10;99.90;;;;;;4992197;28;20046;-73
2023/04/10 04:28:58;;;;;;;1999.90;685.28;;;8.00;99.90;;;;;;5004011;28;20054;-77
2023/04/10 04:31:28;;;;;;;1999.90;691.75;;;;;;;;;;4992019;28;20058;-81
2023/04/10 04:33:54;;;;;;;1999.90;630.08;;;7.90;99.90;;;;;;4986325;28;20064;-73
2023/04/10 04:36:20;;;;;;;1999.90;460.42;;;8.20;99.90;;;;;;5008470;28;20043;-73
2023/04/10 04:38:46;;;;;;;1999.90;289.98;;;8.20;99.90;;;;;;5002059;28;20414;-73
2023/04/10 04:41:11;;;;;;;1999.90;449.63;;;7.90;99.90;;;;;;5003975;28;20046;-73
2023/04/10 04:43:37;;;;;;;1999.90;287.88;;;8.20;99.90;;;;;;4992348;28;20045;-73
2023/04/10 04:46:03;;;;;;;1999.90;528.05;;;8.40;99.90;;;;;;4991176;28;20043;-75
2023/04/10 04:48:28;;;;;;;1999.90;453.60;;;8.00;99.90;;;;;;4995147;28;20045;-74
2023/04/10 04:50:54;;;;;;;1999.90;999.90;;;8.00;99.90;;;;;;5010389;28;20050;-74
2023/04/10 04:53:20;;;;;;;1999.90;351.02;;;8.30;99.90;;;;;;5013010;28;20053;-73
2023/04/10 04:55:45;;;;;;;1999.90;297.10;;;8.10;99.90;;;;;;4994829;28;20042;-74
2023/04/10 04:58:11;;;;;;;1999.90;646.65;;;8.20;99.90;;;;;;4992216;28;20049;-74
2023/04/10 05:00:37;;;;;;;1999.90;489.27;;;7.60;99.90;;;;;;4991157;28;20050;-74
2023/04/10 05:03:02;;;;;;;1999.90;999.90;;;8.10;99.90;;;;;;4991177;28;20046;-74
2023/04/10 05:05:28;;;;;;;1999.90;365.00;;;8.10;99.90;;;;;;4969952;28;20174;-81
2023/04/10 05:07:54;;;;;;;1999.90;827.60;;;8.10;99.90;;;;;;4980371;28;20081;-74
2023/04/10 05:10:20;;;;;;;1999.90;999.90;;;8.30;99.90;;;;;;4999620;28;20064;-74
2023/04/10 05:12:45;;;;;;;1999.90;643.30;;;8.50;99.90;;;;;;5011949;28;20288;-74
2023/04/10 05:15:11;;;;;;;1999.90;513.15;;;8.30;99.90;;;;;;5004975;28;20043;-74
2023/04/10 05:17:37;;;;;;;1999.90;999.90;;;7.10;99.90;;;;;;4972737;28;20395;-76
2023/04/10 05:20:03;;;;;;;1999.90;815.53;;;8.10;99.90;;;;;;4988707;28;20047;-75
2023/04/10 05:22:29;;;;;;;1999.90;642.88;;;8.10;99.90;;;;;;4975648;28;20078;-79
2023/04/10 05:24:55;;;;;;;1999.90;386.58;;;8.10;99.90;;;;;;4978093;28;20055;-74
2023/04/10 05:27:21;;;;;;;1999.90;850.13;;;8.10;99.90;;;;;;4976484;28;20038;-74
2023/04/10 05:29:47;;;;;;;1999.90;405.38;;;8.30;99.90;;;;;;4995705;28;20064;-74
2023/04/10 05:32:13;;;;;;;1999.90;999.90;;;8.20;99.90;;;;;;4986529;28;20129;-77
2023/04/10 05:34:39;;;;;;;1999.90;999.90;;;9.10;99.90;;;;;;4979768;28;20053;-76
2023/04/10 05:37:04;;;;;;;1999.90;282.58;;;8.20;99.90;;;;;;4963237;28;20050;-76
2023/04/10 05:39:30;;;;;;;1999.90;677.08;;;8.60;99.90;;;;;;4984211;28;20074;-81
2023/04/10 05:41:57;;;;;;;1999.90;529.05;;;8.40;99.90;;;;;;4986589;28;20055;-75
2023/04/10 05:44:23;;;;;;;1999.90;273.08;;;8.20;99.90;;;;;;4977675;28;20418;-77
2023/04/10 05:46:48;;;;;;;1999.90;330.23;;;8.50;99.90;;;;;;4993374;28;20046;-77
2023/04/10 05:49:15;;;;;;;1999.90;413.75;;;8.40;99.90;;;;;;4974707;28;20046;-75
2023/04/10 05:51:41;;;;;;;1999.90;301.70;;;8.50;99.90;;;;;;5000572;28;20054;-78
2023/04/10 05:54:07;;;;;;;1999.90;206.43;;;8.50;99.90;;;;;;4983425;28;20096;-75
2023/04/10 05:56:33;;;;;;;1999.90;999.90;;;8.70;99.90;;;;;;4992952;28;20049;-80
2023/04/10 05:58:58;;;;;;;1999.90;466.67;;;8.50;99.90;;;;;;4992101;28;20469;-75
2023/04/10 06:01:24;;;;;;;1999.90;219.90;;;8.50;99.90;;;;;;4988916;28;20069;-76
2023/04/10 06:03:50;;;;;;;1999.90;272.08;;;8.50;99.90;;;;;;4985975;28;20077;-75
2023/04/10 06:06:16;;;;;;;1999.90;320.17;;;8.60;99.90;;;;;;4976310;28;20058;-77
2023/04/10 06:08:41;;;;;;;1999.90;541.50;;;9.00;99.90;;;;;;4988211;28;20043;-74
2023/04/10 06:11:07;;;;;;;1999.90;479.98;;;8.60;99.90;;;;;;5000090;28;20038;-75
2023/04/10 06:13:33;;;;;;;1999.90;389.73;;;8.60;99.90;;;;;;4986126;28;20418;-82
2023/04/10 06:15:59;;;;;;;1999.90;653.83;;;8.70;99.90;;;;;;4986419;28;20494;-75
2023/04/10 06:18:25;;;;;;;1999.90;321.65;;;8.80;99.90;;;;;;4972894;28;20137;-75
2023/04/10 06:20:50;;;;;;;1999.90;644.63;;;8.80;99.90;;;;;;4993743;28;20247;-75
2023/04/10 06:23:16;;;;;;;1999.90;455.67;;;8.90;99.90;;;;;;4961555;28;20099;-75
2023/04/10 06:25:42;;;;;;;1999.90;816.63;;;8.80;99.90;;;;;;4994103;28;20050;-75
2023/04/10 06:28:08;;;;;;;1999.90;999.90;;;8.80;99.90;;;;;;4973220;28;20487;-78
2023/04/10 06:30:36;;;;;;;1999.90;999.90;;;8.90;99.90;;;;;;4979117;28;20058;-77
2023/04/10 06:33:01;;;;;;;1999.90;999.90;;;9.50;99.90;;;;;;4978195;28;20069;-80
2023/04/10 06:35:27;;;;;;;1999.90;308.15;;;8.90;99.90;;;;;;4986860;28;20420;-75
2023/04/10 06:37:53;;;;;;;1999.90;622.05;;;9.30;99.90;;;;;;4970108;28;20057;-74
2023/04/10 06:40:18;;;;;;;1999.90;272.75;;;9.00;99.90;;;;;;4970985;28;20042;-75
2023/04/10 06:42:44;;;;;;;1999.90;999.90;;;9.00;99.90;;;;;;4986551;28;20543;-75
2023/04/10 06:45:10;;;;;;;1999.90;999.90;;;9.10;99.90;;;;;;4981353;28;20042;-75
2023/04/10 06:47:36;;;;;;;1999.90;450.27;;;9.20;99.90;;;;;;4968354;28;20492;-81
2023/04/10 06:50:02;;;;;;;1999.90;330.67;;;9.30;99.90;;;;;;4970998;28;20049;-75
2023/04/10 06:52:27;;;;;;;1999.90;314.88;;;9.30;99.90;;;;;;4986512;28;20046;-75
2023/04/10 06:54:53;;;;;;;1999.90;999.90;;;9.40;99.90;;;;;;4993864;28;20078;-75
2023/04/10 06:57:19;;;;;;;1999.90;999.90;;;9.80;99.90;;;;;;5010046;28;20045;-75
2023/04/10 06:59:44;;;;;;;1999.90;629.33;;;9.50;99.90;;;;;;4994104;28;20525;-77
2023/04/10 07:02:10;;;;;;;1999.90;322.65;;;9.50;99.90;;;;;;4990344;28;20061;-75
2023/04/10 07:04:36;;;;;;;1999.90;297.48;;;9.50;99.90;;;;;;4989294;28;20063;-76
2023/04/10 07:07:02;;;;;;;1999.90;655.08;;;9.50;99.90;;;;;;4998360;28;20045;-75
2023/04/10 07:09:29;;;;;;;1999.90;361.13;;;9.50;99.90;;;;;;4997195;28;20630;-75
2023/04/10 07:11:55;;;;;;;1999.90;324.55;;;9.60;99.90;;;;;;5003256;28;20053;-77
2023/04/10 07:14:21;;;;;;;1999.90;611.75;;;9.90;99.90;;;;;;4971973;28;20057;-81
2023/04/10 07:16:47;;;;;;;1999.90;214.02;;;9.70;99.90;;;;;;4976246;28;20045;-75
2023/04/10 07:19:13;;;;;;;1999.90;999.90;;;9.80;99.90;;;;;;4990030;28;20045;-75
2023/04/10 07:21:39;;;;;;;1612.82;171.77;;;9.90;99.90;;;;;;4986534;28;20068;-75
2023/04/10 07:24:05;;;;;;;1999.90;999.90;;;10.00;99.90;;;;;;5001094;28;20053;-83
2023/04/10 07:26:30;;;;;;;1679.20;580.58;;;10.00;99.90;;;;;;4995595;28;20066;-76
2023/04/10 07:28:56;;;;;;;1999.90;999.90;;;10.00;99.90;;;;;;5005999;28;20418;-75
2023/04/10 07:31:22;;;;;;;1999.90;613.92;;;10.10;99.90;;;;;;4990958;28;20125;-76
2023/04/10 07:33:48;;;;;;;1976.97;415.08;;;10.10;99.90;;;;;;5008940;28;20495;-76
2023/04/10 07:36:14;;;;;;;1999.90;999.90;;;10.80;98.60;;;;;;4998690;28;20041;-76
2023/04/10 07:38:41;;;;;;;1999.90;999.90;;;11.80;90.60;;;;;;5012176;28;20552;-75
2023/04/10 07:41:06;;;;;;;1999.90;999.90;;;12.20;66.10;;;;;;4997803;28;20514;-77
2023/04/10 07:43:32;;;;;;;1999.90;999.90;;;12.60;47.90;;;;;;4991179;28;20069;-75
2023/04/10 07:45:58;;;;;;;1999.90;999.90;;;13.00;35.50;;;;;;4989516;28;20109;-76
2023/04/10 07:48:23;;;;;;;1999.90;782.95;;;13.00;26.80;;;;;;4993201;28;20050;-75
2023/04/10 07:50:49;;;;;;;1999.90;999.90;;;13.20;21.70;;;;;;4989145;28;20434;-77
2023/04/10 07:53:15;;;;;;;1999.90;935.78;;;13.50;18.70;;;;;;4994678;28;20048;-75
2023/04/10 07:55:48;;;;;;;1999.90;911.53;;;13.80;15.10;;;;;;4976074;28;20058;-76
2023/04/10 07:58:15;;;;;;;1999.90;999.90;;;14.20;11.10;;;;;;4968780;28;20043;-77
2023/04/10 08:00:41;;;;;;;1999.90;999.90;;;14.50;5.10;;;;;;4999049;28;20046;-76
2023/04/10 08:03:06;;;;;;;1999.90;999.90;;;14.50;4.90;;;;;;4996246;28;20114;-75
2023/04/10 08:05:32;;;;;;;1999.90;999.90;;;14.60;1.00;;;;;;4992886;28;20100;-75
2023/04/10 08:07:58;;;;;;;1999.90;999.90;;;14.20;1.00;;;;;;4992974;28;20049;-76
2023/04/10 08:10:24;;;;;;;1999.90;999.90;;;14.40;1.00;;;;;;4993312;28;20129;-76
2023/04/10 08:12:50;;;;;;;1999.90;999.90;;;14.70;1.00;;;;;;4994282;28;20045;-76
2023/04/10 08:15:17;;;;;;;1999.90;999.90;;;14.90;1.00;;;;;;5004629;28;20053;-76
2023/04/10 08:17:42;;;;;;;1999.90;999.90;;;15.10;1.00;;;;;;4996049;28;20154;-76
2023/04/10 08:20:09;;;;;;;1999.90;999.90;;;14.90;1.00;;;;;;4979729;28;20434;-76
2023/04/10 08:22:35;;;;;;;1999.90;999.90;;;14.90;1.00;;;;;;4995843;28;20042;-76
2023/04/10 08:25:01;;;;;;;1999.90;999.90;;;14.90;1.00;;;;;;4989615;28;20093;-76
2023/04/10 08:27:27;;;;;;;1999.90;999.90;;;14.90;1.00;;;;;;4980936;28;20058;-83
2023/04/10 08:29:53;;;;;;;1999.90;926.80;;;14.70;1.00;;;;;;4983810;28;20093;-75
2023/04/10 08:32:19;;;;;;;1999.90;999.90;;;14.40;1.00;;;;;;4989254;28;20057;-82
2023/04/10 08:34:45;;;;;;;1999.90;999.90;;;13.90;1.00;;;;;;4987409;28;20043;-76
2023/04/10 08:37:11;;;;;;;1999.90;999.90;;;14.20;1.00;;;;;;4997394;28;20060;-76
2023/04/10 08:39:37;;;;;;;1999.90;999.90;;;14.50;1.00;;;;;;4989531;28;20058;-75
2023/04/10 08:42:04;;;;;;;1999.90;999.90;;;14.90;1.00;;;;;;4989256;28;20046;-83
2023/04/10 08:44:30;;;;;;;1999.90;999.90;;;15.40;1.00;;;;;;4987720;28;20074;-75
2023/04/10 08:46:58;;;;;;;1999.90;999.90;;;15.30;1.00;;;;;;4979703;28;20078;-76
2023/04/10 08:49:30;;;;;;;;;;;15.30;1.00;;;;;;4987225;28;20049;-76
2023/04/10 08:51:57;;;;;;;1999.90;999.90;;;14.70;1.00;;;;;;4987049;28;19928;-82
2023/04/10 08:54:39;;;;;;;1999.90;999.90;;;14.60;1.00;;;;;;4989389;28;20041;-75
2023/04/10 08:57:07;;;;;;;1999.90;999.90;;;14.80;1.00;;;;;;4987804;28;20076;-76
2023/04/10 08:59:32;;;;;;;;;;;15.20;1.00;;;;;;4975472;28;20042;-79
2023/04/10 09:01:58;;;;;;;1999.90;972.83;;;15.40;1.00;;;;;;4991240;28;19945;-76
2023/04/10 09:04:25;;;;;;;1999.90;943.63;;;16.00;1.00;;;;;;4979226;28;20076;-76
2023/04/10 09:06:53;;;;;;;1999.90;999.90;;;16.00;1.00;;;;;;4996254;28;20042;-76
2023/04/10 09:09:19;;;;;;;1999.90;633.80;;;16.60;1.00;;;;;;4988388;28;20050;-80
2023/04/10 09:11:51;;;;;;;1999.90;968.88;;;16.20;1.00;;;;;;4986431;28;20046;-76
2023/04/10 09:14:36;;;;;;;1999.90;627.97;;;16.20;1.00;;;;;;4989148;28;20050;-81
2023/04/10 09:17:28;;;;;;;1999.90;998.28;;;16.70;1.00;;;;;;4980577;28;20046;-76
2023/04/10 09:19:54;;;;;;;1999.90;846.72;;;17.50;1.00;;;;;;4980513;28;20133;-76
2023/04/10 09:22:31;;;;;;;1999.90;830.08;;;17.10;1.00;;;;;;4986657;28;20483;-76
2023/04/10 09:24:58;;;;;;;1999.90;514.03;;;16.50;1.00;;;;;;4991627;28;20091;-76
2023/04/10 09:27:34;;;;;;;1999.90;588.05;;;16.30;1.00;;;;;;4990627;28;20049;-76
2023/04/10 09:30:00;;;;;;;1999.90;679.40;;;15.80;1.00;;;;;;4982742;28;20054;-77
2023/04/10 09:32:35;;;;;;;1999.90;619.88;;;15.80;1.00;;;;;;4978568;28;20054;-76
2023/04/10 09:35:01;;;;;;;1999.90;414.13;;;16.10;1.00;;;;;;4986410;28;20050;-76
2023/04/10 09:37:31;;;;;;;1999.90;999.90;;;16.50;1.00;;;;;;4991489;28;20046;-78
2023/04/10 09:39:57;;;;;;;1999.90;999.90;;;16.40;1.00;;;;;;4987580;28;20054;-76
2023/04/10 09:42:35;;;;;;;1999.90;904.58;;;16.50;1.00;;;;;;4986041;28;20042;-76
2023/04/10 09:45:01;;;;;;;1999.90;685.20;;;16.40;1.00;;;;;;4986723;28;20061;-84
2023/04/10 09:47:28;;;;;;;1999.90;655.30;;;16.10;1.00;;;;;;4981692;28;20049;-77
2023/04/10 09:49:59;;;;;;;1999.90;722.45;;;16.10;1.00;;;;;;4979660;28;20400;-77
2023/04/10 09:52:29;;;;;;;1999.90;999.90;;;16.30;1.00;;;;;;4977607;28;20392;-78
2023/04/10 09:55:00;;;;;;;1999.90;999.90;;;15.70;1.00;;;;;;4989481;28;20081;-79
2023/04/10 09:57:29;;;;;;;1999.90;999.90;;;15.10;1.00;;;;;;4993922;28;20042;-75
2023/04/10 09:59:57;;;;;;;1999.90;999.90;;;14.90;1.00;;;;;;4970441;28;20058;-75
2023/04/10 10:02:27;;;;;;;1999.90;999.90;;;14.90;1.00;;;;;;5010221;28;20072;-75
2023/04/10 10:04:53;;;;;;;1999.90;999.90;;;15.10;1.00;;;;;;5011828;28;20056;-76
2023/04/10 10:07:21;;;;;;;1999.90;999.90;;;14.90;1.00;;;;;;5015196;28;20124;-75
2023/04/10 10:09:47;;;;;;;;;;;14.80;1.00;;;;;;4995534;28;20145;-76
2023/04/10 10:12:28;;;;;;;1999.90;999.90;;;14.90;1.00;;;;;;5008044;28;20012;-77
2023/04/10 10:15:04;;;;;;;1999.90;999.90;;;14.80;1.00;;;;;;5013849;28;20046;-76
2023/04/10 10:18:22;;;;;;;1999.90;999.90;;;15.10;1.00;;;;;;4966222;28;20132;-76
2023/04/10 10:20:49;;;;;;;1999.90;721.67;;;14.90;1.00;;;;;;5008265;28;20054;-77
2023/04/10 10:23:18;;;;;;;1999.90;996.22;;;14.70;1.00;;;;;;4997337;28;20125;-77
2023/04/10 10:25:45;;;;;;;1999.90;999.90;;;14.70;1.00;;;;;;4997396;28;20089;-75
2023/04/10 10:28:12;;;;;;;1999.90;999.90;;;14.70;1.00;;;;;;5011880;28;20410;-75
2023/04/10 10:30:39;;;;;;;1999.90;999.90;;;14.90;1.00;;;;;;5013306;28;20068;-75
2023/04/10 10:33:06;;;;;;;1999.90;999.90;;;15.00;1.00;;;;;;5012333;28;20049;-76
2023/04/10 10:35:36;;;;;;;1999.90;999.90;;;15.10;1.00;;;;;;5014276;28;20125;-76
2023/04/10 10:38:03;;;;;;;1999.90;999.90;;;15.00;1.00;;;;;;4996188;28;20064;-76
2023/04/10 10:40:32;;;;;;;1999.90;999.90;;;14.90;1.00;;;;;;5014196;28;20109;-75
2023/04/10 10:43:27;;;;;;;1999.90;999.90;;;14.70;1.00;;;;;;4994220;28;20046;-79
2023/04/10 10:45:56;;;;;;;1999.90;967.67;;;14.40;1.00;;;;;;4985776;28;20046;-75
2023/04/10 10:48:22;;;;;;;1999.90;920.30;;;14.20;1.00;;;;;;4962226;28;20105;-76
2023/04/10 10:50:57;;;;;;;1999.90;999.90;;;14.10;1.00;;;;;;4975795;28;20050;-76
2023/04/10 10:53:37;;;;;;;1999.90;999.90;;;14.10;1.00;;;;;;5000925;28;20121;-76
2023/04/10 10:56:18;;;;;;;1999.90;999.90;;;14.00;1.00;;;;;;5010994;28;20095;-76
2023/04/10 10:58:51;;;;;;;1999.90;999.90;;;14.00;1.00;;;;;;4981245;28;20057;-76
2023/04/10 11:01:19;;;;;;;1999.90;999.90;;;13.90;1.00;;;;;;5013068;28;20495;-75
2023/04/10 11:03:45;;;;;;;1999.90;753.28;;;13.90;1.00;;;;;;4994674;28;20038;-75
2023/04/10 11:06:15;;;;;;;1999.90;845.08;;;13.80;1.00;;;;;;5012505;28;20050;-75
2023/04/10 11:08:46;;;;;;;1999.90;874.70;;;14.00;1.00;;;;;;5013531;28;20038;-75
2023/04/10 11:11:26;;;;;;;1999.90;999.90;;;14.10;1.00;;;;;;5014011;28;20038;-76
2023/04/10 11:13:51;;;;;;;1999.90;925.13;;;14.20;1.00;;;;;;4992983;28;20398;-76
2023/04/10 11:16:18;;;;;;;1999.90;999.90;;;14.10;1.00;;;;;;5006448;28;20042;-75
2023/04/10 11:18:44;;;;;;;1999.90;999.90;;;14.20;1.00;;;;;;4991692;28;20061;-74
2023/04/10 11:21:10;;;;;;;1999.90;930.92;;;14.30;1.00;;;;;;4986331;28;20050;-75
2023/04/10 11:23:38;;;;;;;1999.90;999.90;;;14.40;1.00;;;;;;4987345;28;20041;-75
2023/04/10 11:26:05;;;;;;;1999.90;999.90;;;14.60;1.00;;;;;;4972326;28;20112;-75
2023/04/10 11:28:38;;;;;;;1999.90;999.90;;;14.80;1.00;;;;;;4997243;28;20077;-77
2023/04/10 11:31:20;;;;;;;1999.90;999.90;;;15.10;1.00;;;;;;4969824;28;20411;-76
2023/04/10 11:34:00;;;;;;;1999.90;999.90;;;15.00;1.00;;;;;;4993998;28;20460;-76
2023/04/10 11:36:27;;;;;;;1999.90;999.90;;;15.10;1.00;;;;;;4991646;28;20042;-77
2023/04/10 11:39:01;;;;;;;1999.90;999.90;;;15.10;1.00;;;;;;4970376;28;20513;-77
2023/04/10 11:41:32;;;;;;;1999.90;999.90;;;15.20;1.00;;;;;;4957060;28;20054;-79
2023/04/10 11:43:59;;;;;;;1999.90;890.35;;;14.90;1.00;;;;;;4962602;28;20056;-82
2023/04/10 11:46:25;;;;;;;1999.90;824.50;;;14.40;1.00;;;;;;4999299;28;20510;-77
2023/04/10 11:49:04;;;;;;;1999.90;666.03;;;14.10;1.00;;;;;;4993607;28;20046;-76
2023/04/10 11:51:31;;;;;;;1999.90;799.75;;;14.10;1.00;;;;;;4997302;28;20125;-76
2023/04/10 11:54:15;;;;;;;1999.90;999.90;;;14.20;7.60;;;;;;4977895;28;20539;-79
2023/04/10 11:56:44;;;;;;;1999.90;999.90;;;14.30;1.00;;;;;;5003758;28;20510;-77
2023/04/10 11:59:12;;;;;;;1999.90;999.90;;;14.40;1.00;;;;;;5008566;28;20068;-78
2023/04/10 12:01:39;;;;;;;1999.90;999.90;;;14.60;1.00;;;;;;5003112;28;20054;-76
2023/04/10 12:04:13;;;;;;;1999.90;992.35;;;14.70;1.00;;;;;;4960030;28;20049;-81
2023/04/10 12:06:43;;;;;;;1999.90;999.90;;;14.90;1.00;;;;;;4987179;28;20635;-78
2023/04/10 12:09:17;;;;;;;1999.90;848.97;;;14.80;1.00;;;;;;5003220;28;20049;-79
2023/04/10 12:11:51;;;;;;;1999.90;901.10;;;14.60;1.00;;;;;;4983904;28;20108;-78
2023/04/10 12:14:21;;;;;;;1999.90;744.17;;;14.70;1.00;;;;;;4993287;28;20082;-79